createdAt,value
2022-12-01T00:02:20.854Z,20.19
2022-12-01T00:04:48.533Z,20.23
2022-12-01T00:07:15.124Z,20.15
2022-12-01T00:09:59.971Z,20.22
2022-12-01T00:12:26.530Z,20.23
2022-12-01T00:14:55.086Z,20.21
2022-12-01T00:17:24.155Z,20.19
2022-12-01T00:19:52.817Z,20.09
2022-12-01T00:22:19.404Z,20.02
2022-12-01T00:24:46.738Z,20.23
2022-12-01T00:27:13.298Z,20.22
2022-12-01T00:29:39.869Z,20.18
2022-12-01T00:32:06.487Z,20.16
2022-12-01T00:34:33.165Z,19.97
2022-12-01T00:37:00.418Z,19.98
2022-12-01T00:39:27.004Z,19.82
2022-12-01T00:41:53.558Z,19.62
2022-12-01T00:44:20.193Z,19.67
2022-12-01T00:46:47.448Z,19.57
2022-12-01T00:49:14.118Z,19.43
2022-12-01T00:51:40.724Z,19.32
2022-12-01T00:54:07.353Z,19.29
2022-12-01T00:56:33.934Z,19.24
2022-12-01T00:59:00.630Z,19.25
2022-12-01T01:01:27.322Z,19.14
2022-12-01T01:03:53.890Z,19.10
2022-12-01T01:06:20.746Z,19.15
2022-12-01T01:08:47.388Z,19.09
2022-12-01T01:11:13.975Z,19.08
2022-12-01T01:13:40.629Z,18.94
2022-12-01T01:16:10.737Z,19.13
2022-12-01T01:18:37.665Z,18.96
2022-12-01T01:21:06.228Z,19.02
2022-12-01T01:23:32.845Z,19.01
2022-12-01T01:26:15.052Z,19.11
2022-12-01T01:28:41.754Z,19.10
2022-12-01T01:31:09.176Z,19.10
2022-12-01T01:33:36.124Z,19.04
2022-12-01T01:36:03.143Z,19.13
2022-12-01T01:38:32.323Z,19.13
2022-12-01T01:40:58.979Z,19.06
2022-12-01T01:43:48.349Z,18.94
2022-12-01T01:46:19.072Z,19.03
2022-12-01T01:48:52.461Z,19.01
2022-12-01T01:51:22.500Z,18.97
2022-12-01T01:53:49.062Z,18.91
2022-12-01T01:56:15.697Z,19.01
2022-12-01T01:58:42.442Z,18.92
2022-12-01T02:01:09.404Z,18.97
2022-12-01T02:03:36.151Z,18.96
2022-12-01T02:06:06.183Z,18.89
2022-12-01T02:08:34.277Z,18.85
2022-12-01T02:11:33.247Z,18.89
2022-12-01T02:14:18.746Z,18.79
2022-12-01T02:16:57.465Z,18.83
2022-12-01T02:19:30.574Z,18.95
2022-12-01T02:22:34.983Z,18.98
2022-12-01T02:25:16.223Z,18.93
2022-12-01T02:27:51.757Z,18.90
2022-12-01T02:30:25.543Z,19.03
2022-12-01T02:33:17.758Z,18.86
2022-12-01T02:35:58.966Z,18.84
2022-12-01T02:38:35.601Z,18.86
2022-12-01T02:41:16.917Z,18.84
2022-12-01T02:43:53.138Z,18.92
2022-12-01T02:46:27.130Z,18.85
2022-12-01T02:48:54.250Z,18.85
2022-12-01T02:51:23.130Z,18.84
2022-12-01T02:53:49.843Z,18.78
2022-12-01T02:56:20.567Z,18.85
2022-12-01T02:58:47.457Z,18.77
2022-12-01T03:01:34.665Z,18.80
2022-12-01T03:04:22.154Z,18.91
2022-12-01T03:07:27.257Z,19.02
2022-12-01T03:10:02.976Z,19.19
2022-12-01T03:12:36.345Z,19.28
2022-12-01T03:15:24.742Z,19.42
2022-12-01T03:18:00.346Z,19.58
2022-12-01T03:20:47.418Z,19.67
2022-12-01T03:23:18.908Z,19.85
2022-12-01T03:25:47.945Z,20.02
2022-12-01T03:28:23.167Z,20.22
2022-12-01T03:30:51.195Z,20.52
2022-12-01T03:33:39.050Z,20.77
2022-12-01T03:36:09.886Z,20.97
2022-12-01T03:38:36.627Z,21.17
2022-12-01T03:41:12.411Z,21.34
2022-12-01T03:43:47.019Z,21.59
2022-12-01T03:46:42.518Z,21.75
2022-12-01T03:49:12.377Z,21.69
2022-12-01T03:51:44.363Z,21.35
2022-12-01T03:54:18.479Z,21.06
2022-12-01T03:56:48.993Z,20.88
2022-12-01T03:59:15.673Z,20.24
2022-12-01T04:01:42.283Z,18.95
2022-12-01T04:04:12.771Z,17.00
2022-12-01T04:06:40.397Z,15.32
2022-12-01T04:09:06.965Z,14.14
2022-12-01T04:11:52.060Z,13.46
2022-12-01T04:14:20.826Z,13.29
2022-12-01T04:16:47.540Z,13.31
2022-12-01T04:19:14.294Z,13.36
2022-12-01T04:21:40.906Z,13.35
2022-12-01T04:24:07.894Z,13.26
2022-12-01T04:26:35.826Z,13.03
2022-12-01T04:29:04.032Z,12.79
2022-12-01T04:31:30.753Z,12.61
2022-12-01T04:33:58.006Z,12.55
2022-12-01T04:36:27.806Z,12.53
2022-12-01T04:38:54.374Z,12.53
2022-12-01T04:41:20.978Z,12.55
2022-12-01T04:43:47.672Z,12.57
2022-12-01T04:46:14.437Z,12.58
2022-12-01T04:48:43.459Z,12.61
2022-12-01T04:51:10.111Z,12.60
2022-12-01T04:53:36.753Z,12.59
2022-12-01T04:56:03.770Z,12.58
2022-12-01T04:58:32.873Z,12.54
2022-12-01T05:01:06.601Z,12.54
2022-12-01T05:03:37.174Z,12.51
2022-12-01T05:06:08.538Z,12.49
2022-12-01T05:08:35.279Z,12.45
2022-12-01T05:11:04.433Z,12.45
2022-12-01T05:13:31.089Z,12.42
2022-12-01T05:16:07.647Z,12.38
2022-12-01T05:18:34.485Z,12.37
2022-12-01T05:21:01.281Z,12.33
2022-12-01T05:23:29.084Z,12.34
2022-12-01T05:25:55.752Z,12.34
2022-12-01T05:28:23.040Z,12.32
2022-12-01T05:30:49.886Z,12.33
2022-12-01T05:33:16.666Z,12.31
2022-12-01T05:35:43.254Z,12.30
2022-12-01T05:38:10.045Z,12.31
2022-12-01T05:40:37.154Z,12.30
2022-12-01T05:43:03.783Z,12.32
2022-12-01T05:45:30.475Z,12.32
2022-12-01T05:48:00.443Z,12.32
2022-12-01T05:50:28.207Z,12.31
2022-12-01T05:52:54.977Z,12.32
2022-12-01T05:55:21.640Z,12.33
2022-12-01T05:57:48.237Z,12.32
2022-12-01T06:00:15.160Z,12.71
2022-12-01T06:02:42.013Z,12.63
2022-12-01T06:05:09.249Z,12.29
2022-12-01T06:07:36.068Z,12.13
2022-12-01T06:10:02.834Z,12.07
2022-12-01T06:12:29.441Z,12.14
2022-12-01T06:14:58.350Z,12.55
2022-12-01T06:17:24.934Z,13.26
2022-12-01T06:19:51.776Z,13.10
2022-12-01T06:22:18.658Z,13.06
2022-12-01T06:24:45.267Z,13.09
2022-12-01T06:27:11.849Z,14.32
2022-12-01T06:29:42.063Z,13.91
2022-12-01T06:32:09.256Z,13.13
2022-12-01T06:34:35.905Z,13.12
2022-12-01T06:37:02.621Z,13.15
2022-12-01T06:39:29.178Z,13.04
2022-12-01T06:41:55.765Z,12.92
2022-12-01T06:44:22.429Z,12.78
2022-12-01T06:46:52.951Z,12.51
2022-12-01T06:49:19.780Z,12.57
2022-12-01T06:51:46.527Z,12.71
2022-12-01T06:54:13.223Z,12.78
2022-12-01T06:56:40.727Z,12.67
2022-12-01T06:59:07.795Z,12.62
2022-12-01T07:01:34.582Z,12.71
2022-12-01T07:04:01.265Z,12.65
2022-12-01T07:06:29.717Z,12.73
2022-12-01T07:08:56.259Z,12.89
2022-12-01T07:11:22.897Z,13.18
2022-12-01T07:13:50.897Z,13.28
2022-12-01T07:16:17.670Z,13.57
2022-12-01T07:18:45.299Z,13.83
2022-12-01T07:21:13.092Z,14.07
2022-12-01T07:23:40.079Z,14.79
2022-12-01T07:26:09.648Z,15.15
2022-12-01T07:28:36.552Z,15.29
2022-12-01T07:31:16.497Z,15.64
2022-12-01T07:33:43.207Z,16.04
2022-12-01T07:36:10.918Z,16.52
2022-12-01T07:38:37.929Z,16.92
2022-12-01T07:41:05.847Z,16.75
2022-12-01T07:43:32.726Z,16.76
2022-12-01T07:46:18.690Z,16.53
2022-12-01T07:48:47.267Z,15.59
2022-12-01T07:51:17.407Z,14.37
2022-12-01T07:53:45.153Z,13.58
2022-12-01T07:56:11.873Z,13.10
2022-12-01T07:58:40.533Z,13.15
2022-12-01T08:01:09.009Z,13.48
2022-12-01T08:03:36.505Z,13.68
2022-12-01T08:06:03.839Z,13.77
2022-12-01T08:08:31.181Z,13.79
2022-12-01T08:11:00.832Z,13.58
2022-12-01T08:13:27.834Z,13.35
2022-12-01T08:15:54.489Z,13.15
2022-12-01T08:18:21.343Z,13.05
2022-12-01T08:20:47.922Z,13.09
2022-12-01T08:23:14.616Z,13.17
2022-12-01T08:25:41.229Z,13.30
2022-12-01T08:28:07.826Z,13.36
2022-12-01T08:30:34.500Z,13.41
2022-12-01T08:33:01.159Z,13.55
2022-12-01T08:35:27.740Z,13.64
2022-12-01T08:37:54.464Z,13.68
2022-12-01T08:40:21.668Z,13.55
2022-12-01T08:42:48.308Z,13.47
2022-12-01T08:45:14.907Z,13.43
2022-12-01T08:47:41.506Z,13.42
2022-12-01T08:50:08.380Z,13.42
2022-12-01T08:52:35.052Z,13.47
2022-12-01T08:55:01.696Z,13.41
2022-12-01T08:57:31.341Z,13.57
2022-12-01T08:59:58.107Z,13.48
2022-12-01T09:02:24.977Z,13.49
2022-12-01T09:04:51.723Z,13.43
2022-12-01T09:07:22.934Z,13.54
2022-12-01T09:09:52.975Z,13.55
2022-12-01T09:12:22.290Z,13.63
2022-12-01T09:14:49.799Z,13.68
2022-12-01T09:17:17.111Z,13.72
2022-12-01T09:19:43.903Z,13.63
2022-12-01T09:22:10.854Z,13.65
2022-12-01T09:24:37.567Z,13.48
2022-12-01T09:27:04.489Z,13.45
2022-12-01T09:29:31.169Z,13.48
2022-12-01T09:31:58.280Z,13.57
2022-12-01T09:34:24.895Z,13.65
2022-12-01T09:36:51.459Z,13.56
2022-12-01T09:39:19.322Z,13.59
2022-12-01T09:41:48.947Z,13.65
2022-12-01T09:44:39.123Z,13.59
2022-12-01T09:47:09.116Z,13.70
2022-12-01T09:50:03.291Z,13.76
2022-12-01T09:52:52.556Z,13.79
2022-12-01T09:55:21.088Z,13.74
2022-12-01T09:57:51.065Z,13.72
2022-12-01T10:00:22.678Z,13.79
2022-12-01T10:02:52.683Z,13.79
2022-12-01T10:05:20.765Z,13.65
2022-12-01T10:07:55.239Z,13.53
2022-12-01T10:10:28.347Z,13.64
2022-12-01T10:12:55.111Z,13.39
2022-12-01T10:15:29.556Z,13.48
2022-12-01T10:18:18.132Z,13.68
2022-12-01T10:20:49.983Z,13.93
2022-12-01T10:23:40.997Z,14.28
2022-12-01T10:26:34.570Z,14.65
2022-12-01T10:29:07.637Z,15.11
2022-12-01T10:31:49.242Z,15.50
2022-12-01T10:34:16.982Z,15.81
2022-12-01T10:36:43.573Z,16.13
2022-12-01T10:39:17.844Z,16.29
2022-12-01T10:41:44.614Z,16.70
2022-12-01T10:44:11.270Z,16.85
2022-12-01T10:46:50.507Z,16.71
2022-12-01T10:49:18.032Z,16.55
2022-12-01T10:51:57.894Z,16.15
2022-12-01T10:54:33.323Z,15.16
2022-12-01T10:57:02.022Z,13.98
2022-12-01T10:59:38.937Z,13.52
2022-12-01T11:02:06.685Z,13.44
2022-12-01T11:04:45.586Z,13.36
2022-12-01T11:07:33.583Z,13.45
2022-12-01T11:10:21.752Z,13.84
2022-12-01T11:12:58.475Z,14.38
2022-12-01T11:15:33.707Z,14.34
2022-12-01T11:18:04.246Z,14.41
2022-12-01T11:20:35.686Z,14.33
2022-12-01T11:23:29.841Z,14.32
2022-12-01T11:26:25.193Z,14.38
2022-12-01T11:28:55.759Z,14.36
2022-12-01T11:31:25.486Z,13.64
2022-12-01T11:33:53.439Z,13.69
2022-12-01T11:36:26.512Z,14.08
2022-12-01T11:39:00.257Z,14.31
2022-12-01T11:41:33.121Z,14.43
2022-12-01T11:44:02.117Z,14.50
2022-12-01T11:46:37.060Z,14.53
2022-12-01T11:49:08.904Z,14.62
2022-12-01T11:51:39.096Z,14.52
2022-12-01T11:54:11.918Z,14.51
2022-12-01T11:56:38.527Z,14.47
2022-12-01T11:59:09.660Z,14.59
2022-12-01T12:02:13.826Z,14.51
2022-12-01T12:04:54.503Z,14.44
2022-12-01T12:07:39.524Z,14.44
2022-12-01T12:10:32.073Z,14.58
2022-12-01T12:13:23.675Z,14.66
2022-12-01T12:15:56.366Z,14.63
2022-12-01T12:18:52.014Z,14.69
2022-12-01T12:21:21.261Z,14.67
2022-12-01T12:23:56.967Z,14.69
2022-12-01T12:26:26.886Z,16.02
2022-12-01T12:29:13.624Z,20.54
2022-12-01T12:31:59.480Z,24.61
2022-12-01T12:34:43.596Z,26.28
2022-12-01T12:37:13.676Z,28.57
2022-12-01T12:40:08.962Z,30.23
2022-12-01T12:43:00.392Z,25.46
2022-12-01T12:46:07.383Z,20.35
2022-12-01T12:49:21.428Z,18.80
2022-12-01T12:51:46.441Z,17.89
2022-12-01T12:54:13.075Z,17.30
2022-12-01T12:56:45.268Z,16.73
2022-12-01T12:59:15.990Z,16.49
2022-12-01T13:02:04.172Z,16.32
2022-12-01T13:04:43.910Z,16.05
2022-12-01T13:07:32.258Z,15.92
2022-12-01T13:10:11.586Z,15.72
2022-12-01T13:12:41.642Z,15.59
2022-12-01T13:15:20.985Z,15.46
2022-12-01T13:17:55.078Z,15.50
2022-12-01T13:20:25.067Z,15.41
2022-12-01T13:22:51.706Z,15.34
2022-12-01T13:25:38.250Z,15.36
2022-12-01T13:28:05.843Z,15.31
2022-12-01T13:30:32.475Z,15.56
2022-12-01T13:33:01.527Z,15.48
2022-12-01T13:35:34.108Z,15.70
2022-12-01T13:38:41.122Z,15.73
2022-12-01T13:41:17.743Z,16.07
2022-12-01T13:43:57.148Z,16.33
2022-12-01T13:46:33.209Z,16.86
2022-12-01T13:49:01.472Z,17.36
2022-12-01T13:51:28.163Z,17.58
2022-12-01T13:54:01.320Z,17.60
2022-12-01T13:56:39.346Z,17.86
2022-12-01T13:59:38.198Z,18.16
2022-12-01T14:02:16.254Z,18.61
2022-12-01T14:04:42.938Z,19.17
2022-12-01T14:07:19.406Z,19.18
2022-12-01T14:09:46.041Z,18.78
2022-12-01T14:12:22.125Z,18.48
2022-12-01T14:15:03.374Z,18.20
2022-12-01T14:17:32.207Z,17.49
2022-12-01T14:20:20.416Z,16.52
2022-12-01T14:22:48.662Z,15.76
2022-12-01T14:25:21.384Z,15.73
2022-12-01T14:28:16.156Z,15.67
2022-12-01T14:30:45.008Z,15.70
2022-12-01T14:33:39.716Z,15.62
2022-12-01T14:36:24.590Z,15.50
2022-12-01T14:38:59.244Z,15.69
2022-12-01T14:41:28.939Z,15.74
2022-12-01T14:44:21.286Z,15.61
2022-12-01T14:47:10.331Z,15.75
2022-12-01T14:50:02.137Z,15.79
2022-12-01T14:52:30.727Z,15.51
2022-12-01T14:55:05.124Z,15.42
2022-12-01T14:57:37.635Z,15.55
2022-12-01T15:00:19.765Z,15.69
2022-12-01T15:02:53.994Z,15.76
2022-12-01T15:05:22.265Z,15.79
2022-12-01T15:07:50.345Z,15.82
2022-12-01T15:10:21.437Z,15.79
2022-12-01T15:12:48.325Z,15.76
2022-12-01T15:15:23.944Z,15.76
2022-12-01T15:17:51.493Z,15.72
2022-12-01T15:20:39.017Z,15.72
2022-12-01T15:23:15.252Z,15.72
2022-12-01T15:25:43.441Z,15.70
2022-12-01T15:28:18.141Z,15.71
2022-12-01T15:30:47.393Z,15.68
2022-12-01T15:33:25.481Z,15.70
2022-12-01T15:35:56.421Z,15.59
2022-12-01T15:38:25.813Z,15.46
2022-12-01T15:41:28.471Z,15.36
2022-12-01T15:43:39.813Z,15.27
2022-12-01T15:46:17.255Z,15.15
2022-12-01T15:48:44.178Z,15.08
2022-12-01T15:51:14.893Z,14.98
2022-12-01T15:53:53.791Z,14.92
2022-12-01T15:56:27.274Z,14.84
2022-12-01T15:59:28.046Z,14.77
2022-12-01T16:01:54.685Z,14.72
2022-12-01T16:04:28.070Z,14.64
2022-12-01T16:07:02.280Z,14.61
2022-12-01T16:09:33.177Z,14.56
2022-12-01T16:12:23.858Z,14.51
2022-12-01T16:15:00.645Z,14.47
2022-12-01T16:17:41.484Z,14.41
2022-12-01T16:20:31.670Z,14.36
2022-12-01T16:23:00.098Z,14.40
2022-12-01T16:25:34.778Z,14.49
2022-12-01T16:28:01.458Z,14.52
2022-12-01T16:30:32.178Z,14.51
2022-12-01T16:33:03.693Z,14.47
2022-12-01T16:35:31.786Z,14.40
2022-12-01T16:37:58.385Z,14.45
2022-12-01T16:40:25.108Z,14.51
2022-12-01T16:42:51.726Z,14.54
2022-12-01T16:45:18.970Z,14.48
2022-12-01T16:47:47.136Z,14.42
2022-12-01T16:50:17.822Z,14.36
2022-12-01T16:52:45.545Z,14.34
2022-12-01T16:55:36.510Z,14.36
2022-12-01T16:58:03.272Z,14.45
2022-12-01T17:00:32.134Z,14.44
2022-12-01T17:02:58.899Z,14.38
2022-12-01T17:05:27.843Z,14.31
2022-12-01T17:07:54.575Z,14.31
2022-12-01T17:10:21.490Z,14.38
2022-12-01T17:12:48.100Z,14.53
2022-12-01T17:15:14.710Z,14.75
2022-12-01T17:17:41.339Z,15.01
2022-12-01T17:20:08.638Z,15.30
2022-12-01T17:22:35.977Z,15.60
2022-12-01T17:25:02.781Z,15.90
2022-12-01T17:27:29.854Z,16.19
2022-12-01T17:29:58.795Z,16.48
2022-12-01T17:32:26.260Z,16.78
2022-12-01T17:34:53.027Z,17.08
2022-12-01T17:37:21.299Z,17.43
2022-12-01T17:39:48.191Z,17.51
2022-12-01T17:42:14.777Z,17.28
2022-12-01T17:44:41.437Z,17.05
2022-12-01T17:47:08.108Z,16.82
2022-12-01T17:49:35.858Z,16.28
2022-12-01T17:52:03.575Z,15.39
2022-12-01T17:54:30.201Z,14.60
2022-12-01T17:56:56.861Z,14.34
2022-12-01T17:59:23.483Z,14.39
2022-12-01T18:01:50.113Z,14.49
2022-12-01T18:04:17.270Z,14.53
2022-12-01T18:06:44.257Z,14.55
2022-12-01T18:09:12.640Z,14.57
2022-12-01T18:11:39.431Z,14.56
2022-12-01T18:14:06.032Z,14.53
2022-12-01T18:16:32.825Z,14.50
2022-12-01T18:19:00.131Z,14.46
2022-12-01T18:21:29.327Z,14.44
2022-12-01T18:24:01.087Z,14.39
2022-12-01T18:26:28.427Z,14.35
2022-12-01T18:28:59.530Z,14.31
2022-12-01T18:31:26.434Z,14.26
2022-12-01T18:33:53.159Z,14.23
2022-12-01T18:36:22.107Z,14.27
2022-12-01T18:38:49.478Z,14.37
2022-12-01T18:41:16.105Z,14.39
2022-12-01T18:43:42.669Z,14.38
2022-12-01T18:46:13.407Z,14.45
2022-12-01T18:48:46.969Z,14.48
2022-12-01T18:51:13.676Z,14.45
2022-12-01T18:53:40.398Z,14.43
2022-12-01T18:56:11.671Z,14.49
2022-12-01T18:58:38.738Z,14.52
2022-12-01T19:01:20.927Z,14.45
2022-12-01T19:03:47.695Z,14.45
2022-12-01T19:06:14.429Z,14.49
2022-12-01T19:08:41.054Z,14.49
2022-12-01T19:11:07.631Z,14.43
2022-12-01T19:13:34.303Z,14.38
2022-12-01T19:16:14.829Z,14.32
2022-12-01T19:18:41.662Z,14.28
2022-12-01T19:21:09.719Z,14.23
2022-12-01T19:23:36.545Z,14.19
2022-12-01T19:26:06.943Z,14.17
2022-12-01T19:28:33.901Z,14.12
2022-12-01T19:31:00.733Z,14.11
2022-12-01T19:33:27.426Z,14.06
2022-12-01T19:35:54.130Z,14.08
2022-12-01T19:38:20.751Z,14.06
2022-12-01T19:40:49.402Z,14.04
2022-12-01T19:43:15.994Z,14.04
2022-12-01T19:45:44.666Z,14.02
2022-12-01T19:48:11.336Z,14.00
2022-12-01T19:50:39.524Z,14.00
2022-12-01T19:53:06.160Z,13.97
2022-12-01T19:55:32.784Z,13.97
2022-12-01T19:57:59.430Z,13.96
2022-12-01T20:00:26.201Z,13.97
2022-12-01T20:02:52.814Z,14.20
2022-12-01T20:05:19.438Z,14.59
2022-12-01T20:07:47.527Z,15.02
2022-12-01T20:10:14.257Z,15.49
2022-12-01T20:12:40.988Z,15.95
2022-12-01T20:15:08.733Z,16.40
2022-12-01T20:17:36.716Z,16.85
2022-12-01T20:20:04.037Z,17.24
2022-12-01T20:22:34.194Z,17.62
2022-12-01T20:25:00.990Z,18.17
2022-12-01T20:27:27.943Z,18.70
2022-12-01T20:29:54.771Z,19.11
2022-12-01T20:32:23.624Z,19.46
2022-12-01T20:34:50.872Z,19.69
2022-12-01T20:37:17.635Z,19.96
2022-12-01T20:39:44.274Z,20.21
2022-12-01T20:42:11.312Z,20.27
2022-12-01T20:44:37.993Z,20.28
2022-12-01T20:47:04.562Z,20.35
2022-12-01T20:49:31.341Z,20.17
2022-12-01T20:51:58.027Z,20.03
2022-12-01T20:54:29.057Z,19.76
2022-12-01T20:56:56.371Z,19.62
2022-12-01T20:59:22.956Z,19.57
2022-12-01T21:01:49.506Z,19.68
2022-12-01T21:04:16.178Z,19.67
2022-12-01T21:06:42.892Z,19.74
2022-12-01T21:09:09.588Z,19.87
2022-12-01T21:12:05.604Z,19.92
2022-12-01T21:15:08.362Z,20.00
2022-12-01T21:17:39.923Z,20.11
2022-12-01T21:20:20.254Z,20.19
2022-12-01T21:22:46.857Z,20.20
2022-12-01T21:25:18.791Z,20.26
2022-12-01T21:27:48.878Z,20.39
2022-12-01T21:30:23.230Z,20.40
2022-12-01T21:32:50.000Z,20.30
2022-12-01T21:35:23.765Z,20.41
2022-12-01T21:37:51.884Z,20.48
2022-12-01T21:40:23.819Z,20.42
2022-12-01T21:42:50.699Z,20.48
2022-12-01T21:45:27.392Z,20.50
2022-12-01T21:47:55.642Z,20.62
2022-12-01T21:50:23.649Z,20.56
2022-12-01T21:52:50.269Z,20.69
2022-12-01T21:55:16.744Z,20.58
2022-12-01T21:57:45.115Z,20.67
2022-12-01T22:00:34.806Z,20.62
2022-12-01T22:03:16.437Z,20.57
2022-12-01T22:05:56.174Z,20.58
2022-12-01T22:08:32.586Z,20.66
2022-12-01T22:11:05.183Z,20.84
2022-12-01T22:13:42.872Z,20.72
2022-12-01T22:16:30.531Z,20.57
2022-12-01T22:19:02.459Z,20.66
2022-12-01T22:21:34.354Z,20.75
2022-12-01T22:24:00.812Z,20.64
2022-12-01T22:26:27.512Z,20.82
2022-12-01T22:28:57.021Z,20.73
2022-12-01T22:31:23.619Z,20.74
2022-12-01T22:33:53.614Z,20.90
2022-12-01T22:36:25.093Z,20.85
2022-12-01T22:38:51.702Z,20.79
2022-12-01T22:41:21.448Z,20.81
2022-12-01T22:43:54.714Z,20.69
2022-12-01T22:46:34.099Z,20.88
2022-12-01T22:49:20.765Z,20.77
2022-12-01T22:51:50.799Z,20.73
2022-12-01T22:54:17.333Z,20.87
2022-12-01T22:56:50.600Z,20.83
2022-12-01T22:59:20.162Z,20.84
2022-12-01T23:01:52.072Z,20.84
2022-12-01T23:04:28.321Z,20.85
2022-12-01T23:07:02.372Z,20.84
2022-12-01T23:09:39.764Z,20.88
2022-12-01T23:12:14.333Z,20.89
2022-12-01T23:14:45.700Z,20.89
2022-12-01T23:17:19.157Z,20.86
2022-12-01T23:19:45.767Z,20.87
2022-12-01T23:22:12.374Z,20.76
2022-12-01T23:24:39.507Z,20.91
2022-12-01T23:27:06.675Z,20.84
2022-12-01T23:29:33.311Z,20.79
2022-12-01T23:31:59.932Z,20.83
2022-12-01T23:34:26.523Z,20.77
2022-12-01T23:36:53.116Z,20.72
2022-12-01T23:39:19.765Z,20.73
2022-12-01T23:41:50.110Z,20.69
2022-12-01T23:44:29.561Z,20.67
2022-12-01T23:46:56.912Z,20.64
2022-12-01T23:49:27.449Z,20.60
2022-12-01T23:51:54.864Z,20.39
2022-12-01T23:54:24.317Z,20.37
2022-12-01T23:56:54.562Z,20.42
2022-12-01T23:59:21.289Z,20.29
